createdAt,value
2023-03-03T00:01:27.173Z,16.88
2023-03-03T00:03:55.153Z,20.65
2023-03-03T00:06:22.220Z,18.80
2023-03-03T00:08:49.007Z,17.00
2023-03-03T00:11:15.799Z,18.88
2023-03-03T00:13:51.455Z,18.60
2023-03-03T00:16:31.363Z,17.02
2023-03-03T00:19:00.087Z,19.92
2023-03-03T00:21:41.380Z,17.38
2023-03-03T00:24:14.021Z,16.88
2023-03-03T00:26:42.779Z,15.65
2023-03-03T00:29:30.886Z,17.05
2023-03-03T00:32:27.670Z,18.20
2023-03-03T00:34:56.636Z,17.10
2023-03-03T00:37:28.490Z,19.02
2023-03-03T00:40:19.819Z,17.67
2023-03-03T00:42:51.466Z,18.30
2023-03-03T00:45:43.617Z,18.33
2023-03-03T00:48:24.158Z,17.83
2023-03-03T00:50:53.822Z,15.77
2023-03-03T00:53:23.321Z,16.52
2023-03-03T00:55:52.295Z,17.35
2023-03-03T00:58:21.914Z,14.88
2023-03-03T01:00:53.811Z,16.17
2023-03-03T01:03:24.750Z,18.52
2023-03-03T01:05:52.796Z,18.77
2023-03-03T01:08:21.050Z,16.95
2023-03-03T01:10:53.731Z,16.42
2023-03-03T01:13:23.814Z,17.05
2023-03-03T01:15:51.056Z,14.30
2023-03-03T01:18:18.051Z,11.52
2023-03-03T01:20:44.994Z,10.52
2023-03-03T01:23:12.095Z,10.50
2023-03-03T01:25:39.102Z,9.30
2023-03-03T01:28:06.691Z,11.07
2023-03-03T01:30:34.349Z,9.85
2023-03-03T01:33:01.426Z,7.75
2023-03-03T01:35:30.089Z,10.00
2023-03-03T01:37:58.043Z,12.52
2023-03-03T01:40:29.059Z,12.15
2023-03-03T01:42:56.408Z,11.32
2023-03-03T01:45:31.491Z,9.88
2023-03-03T01:48:19.764Z,8.82
2023-03-03T01:51:04.001Z,9.05
2023-03-03T01:53:46.571Z,9.02
2023-03-03T01:56:13.865Z,9.25
2023-03-03T01:58:45.665Z,8.00
2023-03-03T02:01:17.698Z,7.68
2023-03-03T02:03:45.249Z,7.32
2023-03-03T02:06:16.577Z,7.72
2023-03-03T02:09:02.458Z,7.80
2023-03-03T02:11:32.969Z,7.30
2023-03-03T02:14:00.235Z,7.68
2023-03-03T02:16:27.436Z,6.70
2023-03-03T02:18:54.370Z,6.75
2023-03-03T02:21:24.250Z,8.07
2023-03-03T02:24:12.364Z,6.10
2023-03-03T02:26:43.061Z,7.18
2023-03-03T02:29:10.574Z,7.25
2023-03-03T02:31:38.712Z,7.18
2023-03-03T02:34:06.556Z,8.10
2023-03-03T02:36:38.838Z,8.52
2023-03-03T02:39:21.208Z,7.78
2023-03-03T02:42:12.730Z,8.50
2023-03-03T02:44:40.031Z,8.80
2023-03-03T02:47:07.887Z,9.70
2023-03-03T02:49:36.475Z,8.60
2023-03-03T02:52:07.158Z,8.55
2023-03-03T02:54:34.417Z,8.25
2023-03-03T02:57:01.838Z,7.97
2023-03-03T02:59:29.063Z,9.00
2023-03-03T03:01:56.661Z,7.70
2023-03-03T03:04:27.606Z,11.35
2023-03-03T03:06:55.628Z,10.77
2023-03-03T03:09:24.976Z,8.32
2023-03-03T03:11:52.386Z,7.95
2023-03-03T03:14:19.318Z,7.43
2023-03-03T03:16:46.230Z,8.45
2023-03-03T03:19:13.201Z,11.68
2023-03-03T03:21:40.103Z,12.38
2023-03-03T03:24:07.249Z,14.60
2023-03-03T03:26:34.095Z,14.30
2023-03-03T03:29:01.453Z,12.77
2023-03-03T03:31:28.724Z,13.15
2023-03-03T03:33:55.552Z,14.32
2023-03-03T03:36:22.624Z,12.93
2023-03-03T03:38:49.558Z,13.05
2023-03-03T03:41:16.807Z,13.73
2023-03-03T03:43:43.773Z,11.93
2023-03-03T03:46:10.854Z,14.10
2023-03-03T03:48:38.176Z,14.52
2023-03-03T03:51:05.615Z,15.10
2023-03-03T03:53:32.576Z,14.52
2023-03-03T03:55:59.446Z,15.32
2023-03-03T03:58:26.774Z,13.55
2023-03-03T04:00:54.165Z,15.77
2023-03-03T04:03:21.089Z,13.35
2023-03-03T04:05:48.096Z,13.43
2023-03-03T04:10:50.875Z,13.07
2023-03-03T04:13:18.208Z,13.20
2023-03-03T04:15:45.529Z,11.35
2023-03-03T04:18:12.410Z,13.02
2023-03-03T04:20:40.927Z,14.63
2023-03-03T04:23:07.904Z,14.13
2023-03-03T04:25:34.877Z,13.27
2023-03-03T04:28:03.578Z,14.57
2023-03-03T04:30:32.507Z,13.10
2023-03-03T04:32:59.343Z,13.90
2023-03-03T04:35:26.206Z,13.68
2023-03-03T04:37:53.756Z,13.60
2023-03-03T04:40:20.812Z,12.68
2023-03-03T04:42:47.757Z,12.70
2023-03-03T04:45:14.779Z,12.13
2023-03-03T04:47:41.962Z,12.45
2023-03-03T04:50:10.294Z,11.98
2023-03-03T04:52:37.257Z,12.52
2023-03-03T04:55:04.688Z,13.35
2023-03-03T04:57:31.977Z,13.57
2023-03-03T04:59:59.380Z,13.88
2023-03-03T05:02:26.233Z,17.40
2023-03-03T05:04:53.197Z,26.88
2023-03-03T05:07:20.916Z,22.30
2023-03-03T05:09:47.771Z,18.88
2023-03-03T05:12:14.665Z,20.70
2023-03-03T05:14:41.644Z,19.70
2023-03-03T05:17:08.990Z,16.35
2023-03-03T05:19:35.923Z,15.27
2023-03-03T05:22:02.728Z,14.32
2023-03-03T05:24:29.659Z,15.65
2023-03-03T05:26:56.546Z,17.80
2023-03-03T05:29:23.808Z,14.68
2023-03-03T05:31:50.744Z,15.32
2023-03-03T05:34:17.675Z,18.23
2023-03-03T05:36:44.587Z,15.30
2023-03-03T05:39:11.472Z,16.50
2023-03-03T05:41:38.371Z,16.80
2023-03-03T05:44:05.332Z,18.02
2023-03-03T05:46:32.263Z,17.75
2023-03-03T05:48:59.345Z,14.05
2023-03-03T05:51:26.758Z,16.33
2023-03-03T05:53:56.459Z,15.50
2023-03-03T05:56:23.951Z,17.48
2023-03-03T05:58:51.152Z,9.85
2023-03-03T06:01:18.635Z,13.30
2023-03-03T06:03:45.492Z,12.82
2023-03-03T06:06:14.187Z,15.35
2023-03-03T06:08:41.087Z,16.65
2023-03-03T06:11:08.493Z,14.07
2023-03-03T06:13:35.332Z,15.68
2023-03-03T06:16:02.319Z,15.65
2023-03-03T06:18:29.183Z,12.98
2023-03-03T06:20:56.120Z,15.95
2023-03-03T06:23:23.149Z,14.98
2023-03-03T06:25:50.118Z,14.23
2023-03-03T06:28:17.034Z,16.00
2023-03-03T06:30:43.924Z,12.05
2023-03-03T06:33:11.480Z,16.08
2023-03-03T06:35:38.544Z,18.25
2023-03-03T06:38:05.435Z,14.93
2023-03-03T06:40:32.347Z,14.73
2023-03-03T06:42:59.194Z,15.32
2023-03-03T06:45:26.051Z,16.23
2023-03-03T06:47:52.899Z,13.30
2023-03-03T06:50:21.481Z,13.70
2023-03-03T06:52:48.530Z,11.88
2023-03-03T06:55:23.829Z,12.57
2023-03-03T06:57:50.703Z,13.52
2023-03-03T07:00:25.406Z,20.05
2023-03-03T07:03:08.287Z,15.68
2023-03-03T07:05:35.593Z,13.90
2023-03-03T07:08:06.547Z,13.68
2023-03-03T07:10:33.773Z,13.50
2023-03-03T07:13:25.425Z,12.63
2023-03-03T07:15:54.794Z,12.15
2023-03-03T07:18:40.693Z,11.93
2023-03-03T07:21:16.463Z,10.73
2023-03-03T07:23:45.192Z,10.57
2023-03-03T07:26:14.902Z,10.35
2023-03-03T07:29:06.116Z,11.60
2023-03-03T07:31:39.368Z,10.05
2023-03-03T07:34:40.228Z,11.18
2023-03-03T07:37:17.900Z,10.10
2023-03-03T07:39:46.940Z,10.77
2023-03-03T07:42:29.695Z,13.05
2023-03-03T07:45:00.767Z,11.85
2023-03-03T07:47:31.923Z,10.90
2023-03-03T07:50:07.846Z,9.50
2023-03-03T07:52:43.602Z,9.35
2023-03-03T07:55:26.087Z,14.93
2023-03-03T07:57:54.863Z,19.33
2023-03-03T08:00:41.720Z,19.35
2023-03-03T08:03:20.157Z,17.75
2023-03-03T08:05:51.392Z,18.23
2023-03-03T08:08:36.903Z,22.42
2023-03-03T08:11:05.413Z,17.70
2023-03-03T08:13:36.639Z,18.23
2023-03-03T08:16:10.277Z,19.58
2023-03-03T08:18:42.949Z,21.02
2023-03-03T08:21:19.183Z,26.02
2023-03-03T08:23:46.433Z,21.85
2023-03-03T08:26:14.139Z,29.23
2023-03-03T08:28:41.255Z,28.65
2023-03-03T08:31:18.378Z,25.00
2023-03-03T08:33:47.626Z,23.35
2023-03-03T08:36:14.515Z,23.35
2023-03-03T08:38:41.903Z,22.67
2023-03-03T08:41:10.985Z,26.75
2023-03-03T08:43:37.981Z,26.13
2023-03-03T08:46:06.886Z,30.45
2023-03-03T08:48:34.378Z,26.83
2023-03-03T08:51:01.520Z,28.70
2023-03-03T08:53:29.125Z,23.95
2023-03-03T08:55:56.100Z,25.67
2023-03-03T08:58:33.524Z,22.60
2023-03-03T09:01:01.888Z,25.50
2023-03-03T09:03:28.846Z,26.17
2023-03-03T09:05:56.081Z,26.88
2023-03-03T09:08:23.443Z,24.25
2023-03-03T09:10:50.320Z,13.38
2023-03-03T09:13:19.561Z,16.30
2023-03-03T09:15:47.147Z,16.77
2023-03-03T09:18:19.772Z,17.63
2023-03-03T09:20:48.225Z,19.10
2023-03-03T09:23:24.436Z,17.80
2023-03-03T09:25:52.234Z,20.42
2023-03-03T09:28:31.758Z,19.98
2023-03-03T09:31:06.428Z,20.23
2023-03-03T09:33:45.702Z,19.75
2023-03-03T09:36:26.594Z,21.92
2023-03-03T09:38:55.878Z,21.00
2023-03-03T09:41:46.860Z,19.75
2023-03-03T09:44:30.985Z,19.88
2023-03-03T09:47:24.137Z,17.08
2023-03-03T09:50:18.125Z,14.65
2023-03-03T09:53:13.140Z,17.98
2023-03-03T09:55:59.012Z,18.13
2023-03-03T09:58:50.802Z,18.38
2023-03-03T10:01:41.107Z,20.00
2023-03-03T10:04:41.411Z,18.70
2023-03-03T10:07:45.451Z,19.10
2023-03-03T10:10:30.033Z,17.85
2023-03-03T10:13:09.032Z,21.23
2023-03-03T10:16:14.418Z,18.58
2023-03-03T10:18:53.039Z,16.02
2023-03-03T10:21:48.633Z,18.23
2023-03-03T10:24:52.683Z,19.75
2023-03-03T10:27:22.636Z,20.90
2023-03-03T10:30:08.376Z,25.10
2023-03-03T10:33:24.030Z,22.90
2023-03-03T10:36:09.694Z,27.58
2023-03-03T10:38:55.688Z,25.38
2023-03-03T10:41:37.542Z,23.23
2023-03-03T10:44:21.212Z,21.95
2023-03-03T10:47:12.886Z,22.10
2023-03-03T10:49:57.958Z,20.52
2023-03-03T10:52:39.219Z,21.75
2023-03-03T10:55:40.301Z,21.67
2023-03-03T10:58:13.050Z,20.58
2023-03-03T11:01:17.253Z,19.88
2023-03-03T11:04:06.712Z,20.13
2023-03-03T11:06:45.603Z,20.55
2023-03-03T11:09:25.382Z,23.92
2023-03-03T11:12:20.776Z,23.25
2023-03-03T11:15:00.442Z,21.92
2023-03-03T11:17:47.126Z,23.25
2023-03-03T11:20:43.317Z,22.02
2023-03-03T11:23:43.201Z,19.02
2023-03-03T11:26:45.415Z,20.13
2023-03-03T11:29:50.890Z,21.20
2023-03-03T11:32:41.952Z,20.90
2023-03-03T11:35:35.404Z,17.55
2023-03-03T11:38:33.311Z,16.98
2023-03-03T11:41:13.320Z,14.52
2023-03-03T11:43:50.365Z,14.23
2023-03-03T11:46:30.667Z,12.85
2023-03-03T11:49:09.213Z,13.23
2023-03-03T11:52:29.655Z,10.88
2023-03-03T11:55:08.636Z,12.15
2023-03-03T11:57:53.685Z,9.88
2023-03-03T12:00:20.791Z,11.82
2023-03-03T12:03:29.641Z,12.77
2023-03-03T12:06:05.676Z,28.75
2023-03-03T12:08:35.542Z,19.40
2023-03-03T12:11:14.002Z,8.65
2023-03-03T12:14:12.285Z,12.35
2023-03-03T12:16:53.932Z,15.85
2023-03-03T12:19:42.782Z,12.65
2023-03-03T12:22:29.802Z,9.43
2023-03-03T12:25:32.194Z,8.73
2023-03-03T12:28:03.420Z,9.20
2023-03-03T12:31:10.439Z,8.90
2023-03-03T12:33:57.478Z,10.18
2023-03-03T12:36:45.876Z,9.57
2023-03-03T12:39:34.113Z,8.98
2023-03-03T12:42:20.053Z,8.38
2023-03-03T12:45:02.169Z,7.90
2023-03-03T12:47:43.069Z,8.93
2023-03-03T12:50:10.012Z,9.25
2023-03-03T12:53:14.720Z,12.55
2023-03-03T12:55:48.406Z,10.27
2023-03-03T12:58:27.525Z,9.27
2023-03-03T13:01:21.956Z,11.68
2023-03-03T13:04:02.178Z,11.52
2023-03-03T13:06:44.665Z,16.42
2023-03-03T13:09:29.330Z,12.07
2023-03-03T13:12:08.409Z,9.43
2023-03-03T13:14:44.596Z,11.73
2023-03-03T13:17:17.994Z,9.98
2023-03-03T13:20:02.694Z,9.40
2023-03-03T13:23:03.421Z,10.27
2023-03-03T13:25:36.521Z,16.60
2023-03-03T13:28:21.316Z,11.55
2023-03-03T13:30:54.988Z,9.57
2023-03-03T13:33:35.369Z,9.68
2023-03-03T13:36:14.371Z,11.57
2023-03-03T13:38:47.639Z,14.45
2023-03-03T13:41:36.323Z,13.05
2023-03-03T13:44:18.863Z,13.18
2023-03-03T13:46:57.357Z,12.75
2023-03-03T13:49:35.086Z,12.60
2023-03-03T13:52:21.219Z,11.98
2023-03-03T13:54:57.440Z,11.15
2023-03-03T13:57:43.618Z,11.60
2023-03-03T14:00:30.171Z,18.08
2023-03-03T14:03:18.726Z,14.73
2023-03-03T14:05:52.680Z,14.82
2023-03-03T14:08:42.339Z,10.15
2023-03-03T14:11:28.314Z,10.05
2023-03-03T14:14:16.351Z,10.52
2023-03-03T14:17:22.943Z,11.98
2023-03-03T14:20:15.741Z,12.35
2023-03-03T14:22:53.847Z,14.50
2023-03-03T14:25:21.155Z,15.38
2023-03-03T14:27:48.012Z,15.30
2023-03-03T14:30:32.987Z,9.30
2023-03-03T14:32:59.935Z,9.75
2023-03-03T14:35:32.357Z,11.80
2023-03-03T14:38:08.835Z,12.45
2023-03-03T14:40:39.027Z,17.40
2023-03-03T14:43:24.814Z,16.35
2023-03-03T14:45:53.232Z,14.60
2023-03-03T14:48:21.753Z,10.95
2023-03-03T14:50:52.175Z,11.45
2023-03-03T14:53:18.968Z,12.32
2023-03-03T14:55:52.925Z,16.50
2023-03-03T14:58:35.308Z,21.88
2023-03-03T15:01:24.262Z,12.60
2023-03-03T15:04:04.062Z,12.65
2023-03-03T15:06:37.901Z,10.15
2023-03-03T15:09:26.508Z,14.07
2023-03-03T15:11:55.579Z,16.92
2023-03-03T15:14:45.579Z,18.05
2023-03-03T15:17:26.616Z,12.80
2023-03-03T15:20:24.321Z,15.57
2023-03-03T15:23:05.317Z,14.35
2023-03-03T15:26:02.412Z,17.90
2023-03-03T15:28:50.244Z,12.20
2023-03-03T15:31:35.248Z,9.60
2023-03-03T15:34:05.633Z,10.02
2023-03-03T15:36:52.822Z,10.75
2023-03-03T15:39:48.927Z,10.70
2023-03-03T15:42:40.885Z,9.27
2023-03-03T15:45:29.327Z,9.18
2023-03-03T15:48:14.367Z,7.85
2023-03-03T15:50:56.889Z,9.05
2023-03-03T15:53:38.742Z,11.15
2023-03-03T15:56:17.090Z,12.10
2023-03-03T15:58:52.900Z,11.65
2023-03-03T16:01:40.424Z,18.13
2023-03-03T16:04:14.625Z,15.48
2023-03-03T16:07:09.746Z,12.60
2023-03-03T16:10:24.067Z,14.38
2023-03-03T16:12:56.305Z,14.43
2023-03-03T16:15:53.821Z,10.77
2023-03-03T16:18:37.457Z,9.52
2023-03-03T16:21:19.110Z,15.07
2023-03-03T16:24:20.393Z,17.33
2023-03-03T16:27:05.426Z,20.83
2023-03-03T16:29:47.117Z,21.98
2023-03-03T16:32:37.897Z,17.65
2023-03-03T16:35:25.091Z,17.00
2023-03-03T16:38:33.520Z,19.70
2023-03-03T16:41:03.961Z,20.27
2023-03-03T16:43:54.920Z,27.48
2023-03-03T16:46:22.125Z,24.48
2023-03-03T16:49:12.266Z,20.95
2023-03-03T16:51:42.035Z,21.30
2023-03-03T16:54:37.728Z,22.77
2023-03-03T16:57:17.950Z,23.48
2023-03-03T16:59:55.762Z,23.90
2023-03-03T17:02:44.871Z,21.00
2023-03-03T17:05:39.747Z,22.67
2023-03-03T17:08:12.338Z,19.15
2023-03-03T17:10:57.873Z,16.50
2023-03-03T17:13:36.845Z,14.57
2023-03-03T17:16:51.412Z,14.32
2023-03-03T17:19:36.326Z,19.08
2023-03-03T17:22:15.550Z,18.42
2023-03-03T17:25:13.810Z,17.20
2023-03-03T17:27:57.121Z,15.38
2023-03-03T17:30:36.098Z,17.40
2023-03-03T17:33:21.730Z,15.57
2023-03-03T17:36:27.067Z,17.38
2023-03-03T17:39:02.421Z,13.15
2023-03-03T17:41:34.490Z,14.63
2023-03-03T17:44:07.364Z,17.83
2023-03-03T17:46:50.310Z,17.77
2023-03-03T17:49:20.964Z,12.80
2023-03-03T17:52:15.098Z,11.07
2023-03-03T17:55:12.874Z,13.38
2023-03-03T17:58:09.560Z,23.70
2023-03-03T18:00:36.776Z,25.35
2023-03-03T18:03:39.316Z,22.63
2023-03-03T18:06:44.279Z,25.90
2023-03-03T18:09:36.858Z,24.92
2023-03-03T18:12:09.956Z,24.92
2023-03-03T18:15:21.717Z,22.75
2023-03-03T18:18:22.509Z,28.23
2023-03-03T18:20:56.906Z,24.85
2023-03-03T18:23:43.693Z,23.60
2023-03-03T18:26:31.600Z,16.17
2023-03-03T18:29:22.382Z,22.35
2023-03-03T18:32:00.050Z,24.00
2023-03-03T18:34:43.667Z,28.85
2023-03-03T18:37:29.571Z,25.58
2023-03-03T18:40:02.548Z,23.08
2023-03-03T18:42:58.601Z,19.15
2023-03-03T18:45:27.184Z,20.10
2023-03-03T18:48:04.348Z,18.80
2023-03-03T18:50:40.889Z,17.48
2023-03-03T18:53:30.807Z,20.48
2023-03-03T18:56:00.275Z,22.17
2023-03-03T18:58:40.794Z,19.70
2023-03-03T19:01:33.472Z,18.75
2023-03-03T19:04:17.326Z,21.27
2023-03-03T19:06:57.118Z,28.67
2023-03-03T19:10:05.604Z,27.45
2023-03-03T19:13:00.817Z,23.67
2023-03-03T19:15:31.123Z,22.15
2023-03-03T19:18:28.094Z,22.27
2023-03-03T19:21:34.959Z,15.48
2023-03-03T19:24:29.565Z,17.30
2023-03-03T19:27:07.011Z,14.00
2023-03-03T19:29:45.977Z,12.93
2023-03-03T19:32:33.559Z,12.38
2023-03-03T19:35:19.508Z,13.30
2023-03-03T19:37:52.284Z,11.75
2023-03-03T19:40:42.448Z,12.88
2023-03-03T19:43:18.006Z,28.20
2023-03-03T19:46:06.065Z,27.23
2023-03-03T19:48:55.428Z,33.13
2023-03-03T19:51:42.575Z,35.03
2023-03-03T19:54:09.741Z,40.78
2023-03-03T19:56:51.092Z,41.55
2023-03-03T19:59:40.202Z,31.85
2023-03-03T20:03:01.671Z,28.63
2023-03-03T20:05:33.363Z,30.40
2023-03-03T20:08:14.837Z,36.03
2023-03-03T20:10:53.118Z,23.48
2023-03-03T20:13:52.201Z,26.10
2023-03-03T20:16:37.248Z,25.88
2023-03-03T20:19:26.207Z,28.95
2023-03-03T20:22:18.955Z,33.08
2023-03-03T20:25:07.511Z,33.75
2023-03-03T20:27:55.683Z,27.48
2023-03-03T20:30:31.218Z,27.73
2023-03-03T20:33:37.236Z,25.10
2023-03-03T20:36:24.427Z,24.17
2023-03-03T20:39:08.192Z,22.20
2023-03-03T20:41:38.265Z,25.25
2023-03-03T20:44:24.038Z,26.83
2023-03-03T20:47:21.573Z,23.73
2023-03-03T20:50:37.384Z,27.90
2023-03-03T20:53:18.142Z,20.17
2023-03-03T20:56:04.596Z,20.17
2023-03-03T20:58:46.497Z,17.38
2023-03-03T21:01:16.471Z,17.27
2023-03-03T21:03:45.411Z,23.00
2023-03-03T21:06:18.224Z,19.50
2023-03-03T21:08:54.763Z,22.95
2023-03-03T21:11:39.886Z,28.95
2023-03-03T21:14:25.102Z,28.58
2023-03-03T21:16:56.284Z,23.20
2023-03-03T21:19:26.736Z,18.00
2023-03-03T21:21:55.053Z,20.67
2023-03-03T21:24:22.855Z,29.20
2023-03-03T21:26:54.076Z,32.70
2023-03-03T21:29:33.909Z,32.55
2023-03-03T21:32:02.583Z,29.52
2023-03-03T21:34:38.379Z,27.95
2023-03-03T21:37:09.838Z,30.70
2023-03-03T21:39:41.310Z,27.88
2023-03-03T21:42:12.072Z,27.20
2023-03-03T21:44:46.737Z,24.10
2023-03-03T21:47:16.317Z,25.80
2023-03-03T21:49:46.136Z,27.73
2023-03-03T21:52:16.407Z,25.08
2023-03-03T21:54:44.557Z,27.35
2023-03-03T21:57:12.598Z,25.30
2023-03-03T21:59:40.171Z,24.40
2023-03-03T22:02:07.910Z,25.13
2023-03-03T22:04:35.127Z,27.27
2023-03-03T22:07:02.397Z,27.40
2023-03-03T22:09:29.246Z,28.65
2023-03-03T22:11:56.164Z,27.15
2023-03-03T22:14:22.967Z,23.80
2023-03-03T22:16:50.161Z,21.73
2023-03-03T22:19:16.964Z,23.40
2023-03-03T22:21:43.801Z,16.77
2023-03-03T22:24:10.722Z,21.42
2023-03-03T22:26:37.561Z,20.65
2023-03-03T22:29:05.263Z,22.55
2023-03-03T22:31:33.507Z,28.55
2023-03-03T22:34:01.105Z,26.52
2023-03-03T22:36:28.291Z,22.00
2023-03-03T22:38:55.293Z,27.25
2023-03-03T22:41:22.453Z,23.85
2023-03-03T22:43:49.362Z,23.20
2023-03-03T22:46:16.248Z,25.90
2023-03-03T22:48:43.318Z,22.90
2023-03-03T22:51:10.210Z,18.80
2023-03-03T22:53:36.998Z,19.52
2023-03-03T22:56:04.037Z,19.55
2023-03-03T22:58:31.254Z,20.70
2023-03-03T23:00:58.165Z,19.48
2023-03-03T23:03:25.512Z,19.25
2023-03-03T23:05:53.043Z,19.80
2023-03-03T23:08:20.746Z,19.27
2023-03-03T23:10:48.647Z,18.70
2023-03-03T23:13:16.010Z,20.52
2023-03-03T23:15:43.522Z,17.58
2023-03-03T23:18:10.782Z,14.95
2023-03-03T23:20:37.986Z,12.45
2023-03-03T23:23:05.068Z,12.07
2023-03-03T23:25:32.070Z,11.35
2023-03-03T23:27:58.994Z,12.45
2023-03-03T23:30:25.955Z,12.15
2023-03-03T23:32:54.005Z,12.88
2023-03-03T23:35:21.177Z,12.15
2023-03-03T23:37:48.493Z,13.60
2023-03-03T23:40:16.409Z,13.15
2023-03-03T23:42:43.750Z,11.35
2023-03-03T23:45:12.404Z,11.40
2023-03-03T23:47:39.306Z,10.93
2023-03-03T23:50:06.979Z,10.65
2023-03-03T23:52:34.005Z,11.20
2023-03-03T23:55:00.932Z,10.25
2023-03-03T23:57:27.800Z,11.10
2023-03-03T23:59:54.721Z,10.52
